GMADGCLA

Guest
Details From GMAD - Agadir AL MASSIRA
To GCLA - La Palma
Flight Number -
Tags generated
Created
Modified
Stats Distance 485 nm / 897 km
Max Altitude 34,000 ft / 10,363 m
Waypoints 8
Social Downloads 3
Likes 0
Share VATSIM

Download

Looking for another format? Having issues loading an existing format? Contact us
Advertisement - Login to hide

Notes

Basic altitude profile: - Ascent Rate: 2500ft/min - Ascent Speed: 250kts - Cruise Altitude: 35000ft - Cruise Speed: 420kts - Descent Rate: 1500ft/min - Descent Speed: 250kts

Route

GMAD ADM UG664 SONSO UG5 KORAL UN871 GDV UH200 TFN GCLA

ID Type Via Altitude Latitude Longitude Leg Dist Tot Dist Heading (true) Name
O GMAD APT - 0 ft / 0 m 30.32262˚ -9.41153˚ - 0 nm - Agadir AL MASSIRA
ADM VOR - 500 ft / 152 m 30.32194˚ -9.38333˚ 1 nm 1 nm 92° / 92° AGADIR VOR-DME
SONSO FIX UG664 (AWY-HI) 34,000 ft / 10,363 m 30.01222˚ -12.10194˚ 142 nm 143 nm 263° / 262° -
KORAL FIX UG5 (AWY-HI) 34,000 ft / 10,363 m 29.73143˚ -12.57834˚ 29 nm 173 nm 236° / 236° -
LZR VOR UN871 (AWY-HI) 34,000 ft / 10,363 m 29.16600˚ -13.51073˚ 59 nm 233 nm 235° / 235° LANZAROTE VOR-DME
GDV VOR UN871 (AWY-HI) 28,000 ft / 8,534 m 28.07708˚ -15.42899˚ 120 nm 353 nm 238° / 237° GRAN CANARIA VOR-DME
TFN VOR UH200 (AWY-HI) 24,500 ft / 7,468 m 28.53683˚ -16.26878˚ 52 nm 405 nm 302° / 302° TENERIFE NORTE VOR-DME
O GCLA APT - 0 ft / 0 m 28.62648˚ -17.75561˚ 78 nm 484 nm 274° / 274° La Palma

Altitude Profile

Advertisement - Login to hide

Weather


0- 5 10 15 20 25 30 35+ Temperature / ° C

Clouds and Precipitation
Forecast for 2018-05-24 12:00 UTC. Updated 5 hours ago

Ground ~20,000 ft ~40,000 ft Winds

GMAD

Details ICAO GMAD
Name Agadir AL MASSIRA
Region Morocco
Timezone Africa/Casablanca (UTC+0.0)
Stats Elevation 250 ft / 76 m (AMSL)
Location 30.322623° -9.411528°
Runways 1
Magnetic Variation 2.433° W

METAR

GMAD 241630Z 27017KT 9999 FEW023 21/12 Q1015 NOSIG

Decode

TAF

TAF GMAD 241100Z 2412/2518 27012KT 8000 SCT020 BECMG 2418/2420 20008KT BECMG 2512/2514 27012KT

Decode

Departure Runways

ID Width Length Bearing (true) Bearing (mag) Surface Threshold Offset Overrun Length
10 148 ft / 45 m 10,509 ft / 3,203 m 91.58° 94.01° Asphalt 0 ft / 0 m 0 ft / 0 m
28 148 ft / 45 m 10,509 ft / 3,203 m 271.60° 274.03° Asphalt 0 ft / 0 m 0 ft / 0 m

GCLA

Details ICAO GCLA (SPC)
Name La Palma
Region Canary Islands
Timezone Atlantic/Canary (UTC+1.0)
Stats Elevation 107 ft / 33 m (AMSL)
Location 28.626480° -17.755613°
Runways 1
Magnetic Variation 5.470° W

METAR

GCLA 241630Z 04015KT 010V080 9999 BKN045 21/14 Q1018

Decode

TAF

TAF GCLA 241400Z 2415/2515 04014KT 9999 BKN045 TX23/2514Z TN17/2505Z TEMPO 2415/2421 04015G27KT TEMPO 2421/2509 34004KT

Decode

Destination Runways

ID Width Length Bearing (true) Bearing (mag) Surface Threshold Offset Overrun Length
01 148 ft / 45 m 7,240 ft / 2,207 m 359.02° 4.49° Asphalt 0 ft / 0 m 279 ft / 85 m
19 148 ft / 45 m 7,240 ft / 2,207 m 179.02° 184.49° Asphalt 0 ft / 0 m 236 ft / 72 m